Map

Track Data

SID SEASON NUMBER BASIN SUBBASIN NAME ISO_TIME NATURE LAT LON WMO_WIND WMO_PRES WMO_AGENCY TRACK_TYPE DIST2LAND LANDFALL IFLAG USA_AGENCY USA_ATCF_ID USA_LAT USA_LON USA_RECORD USA_STATUS USA_WIND USA_PRES USA_SSHS USA_R34_NE USA_R34_SE USA_R34_SW USA_R34_NW USA_R50_NE USA_R50_SE USA_R50_SW USA_R50_NW USA_R64_NE USA_R64_SE USA_R64_SW USA_R64_NW USA_POCI USA_ROCI USA_RMW USA_EYE TOKYO_LAT TOKYO_LON TOKYO_GRADE TOKYO_WIND TOKYO_PRES TOKYO_R50_DIR TOKYO_R50_LONG TOKYO_R50_SHORT TOKYO_R30_DIR TOKYO_R30_LONG TOKYO_R30_SHORT TOKYO_LAND CMA_LAT CMA_LON CMA_CAT CMA_WIND CMA_PRES HKO_LAT HKO_LON HKO_CAT HKO_WIND HKO_PRES NEWDELHI_LAT NEWDELHI_LON NEWDELHI_GRADE NEWDELHI_WIND NEWDELHI_PRES NEWDELHI_CI NEWDELHI_DP NEWDELHI_POCI REUNION_LAT REUNION_LON REUNION_TYPE REUNION_WIND REUNION_PRES REUNION_TNUM REUNION_CI REUNION_RMW REUNION_R34_NE REUNION_R34_SE REUNION_R34_SW REUNION_R34_NW REUNION_R50_NE REUNION_R50_SE REUNION_R50_SW REUNION_R50_NW REUNION_R64_NE REUNION_R64_SE REUNION_R64_SW REUNION_R64_NW BOM_LAT BOM_LON BOM_TYPE BOM_WIND BOM_PRES BOM_TNUM BOM_CI BOM_RMW BOM_R34_NE BOM_R34_SE BOM_R34_SW BOM_R34_NW BOM_R50_NE BOM_R50_SE BOM_R50_SW BOM_R50_NW BOM_R64_NE BOM_R64_SE BOM_R64_SW BOM_R64_NW BOM_ROCI BOM_POCI BOM_EYE BOM_POS_METHOD BOM_PRES_METHOD NADI_LAT NADI_LON NADI_CAT NADI_WIND NADI_PRES WELLINGTON_LAT WELLINGTON_LON WELLINGTON_WIND WELLINGTON_PRES DS824_LAT DS824_LON DS824_STAGE DS824_WIND DS824_PRES TD9636_LAT TD9636_LON TD9636_STAGE TD9636_WIND TD9636_PRES TD9635_LAT TD9635_LON TD9635_WIND TD9635_PRES TD9635_ROCI NEUMANN_LAT NEUMANN_LON NEUMANN_CLASS NEUMANN_WIND NEUMANN_PRES MLC_LAT MLC_LON MLC_CLASS MLC_WIND MLC_PRES USA_GUST BOM_GUST BOM_GUST_PER REUNION_GUST REUNION_GUST_PER USA_SEAHGT USA_SEARAD_NE USA_SEARAD_SE USA_SEARAD_SW USA_SEARAD_NW STORM_SPEED STORM_DIR
1888346S19426 1889 65 SI MM NOT_NAMED 1888-12-10 18:00:00 NR -19.3000 66.2000 spur-merge 885 882 __________O___ -1 -19.3000 66.2000 7 4 0
1888346S19426 1889 65 SI MM NOT_NAMED 1888-12-10 21:00:00 NR -19.4859 66.2265 spur-merge 882 881 __________P___ -1 -19.4859 66.2265 7 4 172
1888346S19426 1889 65 SI MM NOT_NAMED 1888-12-11 00:00:00 NR -19.6675 66.2524 spur-merge 890 889 __________P___ -1 -19.6675 66.2524 7 4 174
1888346S19426 1889 65 SI MM NOT_NAMED 1888-12-11 03:00:00 NR -19.8403 66.2771 spur-merge 889 887 __________P___ -1 -19.8403 66.2771 7 3 172
1888346S19426 1889 65 SI MM NOT_NAMED 1888-12-11 06:00:00 NR -20.0000 66.3000 spur-merge 887 887 __________O___ -1 -20.0000 66.3000 7 3 174
1888346S19426 1889 65 SI MM NOT_NAMED 1888-12-11 09:00:00 NR -20.1450 66.3210 spur-merge 887 886 __________P___ -1 -20.1450 66.3210 7 3 172
1888346S19426 1889 65 SI MM NOT_NAMED 1888-12-11 12:00:00 NR -20.2850 66.3426 spur-merge 886 886 __________P___ -1 -20.2850 66.3426 7 3 171
1888346S19426 1889 65 SI MM NOT_NAMED 1888-12-11 15:00:00 NR -20.4325 66.3679 spur-merge 896 896 __________P___ -1 -20.4325 66.3679 7 3 171
1888346S19426 1889 65 SI MM NOT_NAMED 1888-12-11 18:00:00 NR -20.6000 66.4000 spur-merge 896 896 __________O___ -1 -20.6000 66.4000 7 4 169
1888346S19426 1889 65 SI MM NOT_NAMED 1888-12-11 21:00:00 NR -20.8034 66.4348 spur-merge 896 896 __________P___ -1 -20.8034 66.4348 7 4 171
1888346S19426 1889 65 SI MM NOT_NAMED 1888-12-12 00:00:00 NR -21.0275 66.4776 spur-merge 908 908 __________P___ -1 -21.0275 66.4776 7 5 169
1888346S19426 1889 65 SI MM NOT_NAMED 1888-12-12 03:00:00 NR -21.2628 66.5317 spur-merge 910 910 __________P___ -1 -21.2628 66.5317 7 5 166
1888346S19426 1889 65 SI MM NOT_NAMED 1888-12-12 06:00:00 NR -21.5000 66.6000 spur-merge 923 923 __________O___ -1 -21.5000 66.6000 7 5 163
1888346S19426 1889 65 SI MM NOT_NAMED 1888-12-12 09:00:00 NR -21.7291 66.6856 spur-merge 936 936 __________P___ -1 -21.7291 66.6856 7 5 159
1888346S19426 1889 65 SI MM NOT_NAMED 1888-12-12 12:00:00 NR -21.9575 66.7850 spur-merge 952 952 __________P___ -1 -21.9575 66.7850 7 5 157
1888346S19426 1889 65 SI MM NOT_NAMED 1888-12-12 15:00:00 NR -22.1822 66.8919 spur-merge 966 966 __________P___ -1 -22.1822 66.8919 7 5 156
1888346S19426 1889 65 SI MM NOT_NAMED 1888-12-12 18:00:00 NR -22.4000 67.0000 spur-merge 980 980 __________O___ -1 -22.4000 67.0000 7 5 157
1888346S19426 1889 65 SI MM NOT_NAMED 1888-12-12 21:00:00 NR -22.6071 67.0921 spur-merge 995 995 __________P___ -1 -22.6071 67.0921 7 4 157
1888346S19426 1889 65 SI MM NOT_NAMED 1888-12-13 00:00:00 NR -22.8074 67.1853 spur-merge 1011 1011 __________P___ -1 -22.8074 67.1853 7 4 156
1888346S19426 1889 65 SI MM NOT_NAMED 1888-12-13 03:00:00 NR -23.0040 67.2858 spur-merge 1026 1026 __________P___ -1 -23.0040 67.2858 7 4 153
1888346S19426 1889 65 SI MM NOT_NAMED 1888-12-13 06:00:00 NR -23.2000 67.4000 spur-merge 1042 1042 __________O___ -1 -23.2000 67.4000 7 5 150
1888346S19426 1889 65 SI MM NOT_NAMED 1888-12-13 09:00:00 NR -23.4122 67.5396 spur-merge 1058 1058 __________P___ -1 -23.4122 67.5396 7 5 148
1888346S19426 1889 65 SI MM NOT_NAMED 1888-12-13 12:00:00 NR -23.6226 67.6923 spur-merge 1084 1084 __________P___ -1 -23.6226 67.6923 7 5 145
1888346S19426 1889 65 SI MM NOT_NAMED 1888-12-13 15:00:00 NR -23.8216 67.8490 spur-merge 1101 1101 __________P___ -1 -23.8216 67.8490 7 5 143
1888346S19426 1889 65 SI MM NOT_NAMED 1888-12-13 18:00:00 NR -24.0000 68.0000 spur-merge 1128 1128 __________O___ -1 -24.0000 68.0000 7 4 141
1888346S19426 1889 65 SI MM NOT_NAMED 1888-12-13 21:00:00 NR -24.1343 68.1285 spur-merge 1141 1141 __________P___ -1 -24.1343 68.1285 7 3 138
1888346S19426 1889 65 SI MM NOT_NAMED 1888-12-14 00:00:00 NR -24.2499 68.2505 spur-merge 1164 1164 __________P___ -1 -24.2499 68.2505 7 3 136
1888346S19426 1889 65 SI MM NOT_NAMED 1888-12-14 03:00:00 NR -24.3655 68.3722 spur-merge 1181 1181 __________P___ -1 -24.3655 68.3722 7 3 138
1888346S19426 1889 65 SI MM NOT_NAMED 1888-12-14 06:00:00 NR -24.5000 68.5000 spur-merge 1195 1195 __________O___ -1 -24.5000 68.5000 7 4 143
1888346S19426 1889 65 SI MM NOT_NAMED 1888-12-14 09:00:00 NR -24.6906 68.6387 spur-merge 1212 1212 __________P___ -1 -24.6906 68.6387 7 5 147
1888346S19426 1889 65 SI MM NOT_NAMED 1888-12-14 12:00:00 NR -24.8999 68.7849 spur-merge 1239 1239 __________P___ -1 -24.8999 68.7849 7 5 147
1888346S19426 1889 65 SI MM NOT_NAMED 1888-12-14 15:00:00 NR -25.1093 68.9387 spur-merge 1256 1256 __________P___ -1 -25.1093 68.9387 7 5 145
1888346S19426 1889 65 SI MM NOT_NAMED 1888-12-14 18:00:00 NR -25.3000 69.1000 spur-merge 1283 1283 __________O___ -1 -25.3000 69.1000 7 5 139
1888346S19426 1889 65 SI MM NOT_NAMED 1888-12-14 21:00:00 NR -25.4579 69.2684 spur-merge 1311 1311 __________P___ -1 -25.4579 69.2684 7 4 133
1888346S19426 1889 65 SI MM NOT_NAMED 1888-12-15 00:00:00 NR -25.5877 69.4424 spur-merge 1324 1324 __________P___ -1 -25.5877 69.4424 7 4 127
1888346S19426 1889 65 SI MM NOT_NAMED 1888-12-15 03:00:00 NR -25.6986 69.6202 spur-merge 1347 1347 __________P___ -1 -25.6986 69.6202 7 4 123
1888346S19426 1889 65 SI MM NOT_NAMED 1888-12-15 06:00:00 NR -25.8000 69.8000 spur-merge 1370 __________O___ -1 -25.8000 69.8000 7 4 122

About IBTrACS Database

This database is a web-friendly format of International Best Track Archive for Climate Stewardship (IBTrACS), a global best track data archive curated by NOAA dating back to 1842.

Updated: 2021-10-21